createdAt,value
2023-02-27T00:02:18.699Z,2.45
2023-02-27T00:07:15.145Z,2.72
2023-02-27T00:12:12.074Z,2.80
2023-02-27T00:17:08.570Z,2.63
2023-02-27T00:22:04.986Z,2.83
2023-02-27T00:27:01.414Z,2.63
2023-02-27T00:31:57.878Z,2.80
2023-02-27T00:36:54.369Z,3.00
2023-02-27T00:41:51.792Z,2.60
2023-02-27T00:46:48.224Z,2.72
2023-02-27T00:51:44.720Z,2.88
2023-02-27T00:56:41.139Z,2.90
2023-02-27T01:01:37.642Z,2.67
2023-02-27T01:06:34.142Z,2.85
2023-02-27T01:11:30.967Z,2.83
2023-02-27T01:16:27.526Z,3.22
2023-02-27T01:21:24.237Z,3.08
2023-02-27T01:26:20.853Z,3.13
2023-02-27T01:31:17.466Z,2.73
2023-02-27T01:36:14.015Z,3.28
2023-02-27T01:41:10.481Z,2.97
2023-02-27T01:46:07.096Z,2.88
2023-02-27T01:51:13.354Z,2.70
2023-02-27T01:56:15.010Z,3.10
2023-02-27T02:01:11.713Z,2.75
2023-02-27T02:06:08.894Z,2.67
2023-02-27T02:16:22.633Z,2.75
2023-02-27T02:22:06.975Z,2.80
2023-02-27T02:27:18.902Z,2.65
2023-02-27T02:32:41.603Z,2.70
2023-02-27T02:37:53.032Z,2.47
2023-02-27T02:43:20.194Z,2.47
2023-02-27T02:48:42.326Z,2.42
2023-02-27T02:54:03.947Z,2.20
2023-02-27T02:59:13.822Z,2.72
2023-02-27T03:04:18.501Z,2.60
2023-02-27T03:09:29.142Z,2.35
2023-02-27T03:14:35.854Z,2.20
2023-02-27T03:19:55.102Z,2.30
2023-02-27T03:24:53.749Z,2.60
2023-02-27T03:30:01.461Z,2.40
2023-02-27T03:34:57.940Z,2.83
2023-02-27T03:40:21.395Z,2.07
2023-02-27T03:45:25.775Z,2.53
2023-02-27T03:50:22.264Z,3.00
2023-02-27T03:55:25.330Z,2.63
2023-02-27T04:00:23.725Z,2.65
2023-02-27T04:05:20.983Z,2.58
2023-02-27T04:10:44.323Z,3.03
2023-02-27T04:16:12.147Z,2.97
2023-02-27T04:21:28.399Z,2.85
2023-02-27T04:26:29.924Z,3.20
2023-02-27T04:31:45.397Z,2.95
2023-02-27T04:36:45.891Z,2.80
2023-02-27T04:41:50.763Z,2.92
2023-02-27T04:46:47.782Z,3.13
2023-02-27T04:51:51.709Z,3.58
2023-02-27T04:56:52.761Z,3.92
2023-02-27T05:01:59.990Z,3.15
2023-02-27T05:06:57.925Z,3.10
2023-02-27T05:12:01.745Z,2.72
2023-02-27T05:17:12.235Z,2.92
2023-02-27T05:22:33.878Z,3.50
2023-02-27T05:27:51.398Z,3.40
2023-02-27T05:32:58.580Z,3.63
2023-02-27T05:38:15.047Z,3.13
2023-02-27T05:43:24.846Z,3.78
2023-02-27T05:48:28.161Z,4.00
2023-02-27T05:53:27.603Z,3.20
2023-02-27T05:58:27.127Z,3.20
2023-02-27T06:03:23.678Z,3.78
2023-02-27T06:08:21.621Z,3.90
2023-02-27T06:13:18.308Z,4.18
2023-02-27T06:18:16.298Z,3.80
2023-02-27T06:23:13.247Z,4.35
2023-02-27T06:28:10.467Z,4.70
2023-02-27T06:38:03.405Z,3.83
2023-02-27T06:42:59.827Z,4.47
2023-02-27T06:47:56.266Z,4.20
2023-02-27T06:52:52.717Z,3.97
2023-02-27T06:57:49.277Z,4.27
2023-02-27T07:02:45.796Z,3.90
2023-02-27T07:07:42.237Z,4.57
2023-02-27T07:12:39.824Z,4.40
2023-02-27T07:17:37.734Z,4.78
2023-02-27T07:22:34.361Z,4.47
2023-02-27T07:27:31.172Z,4.13
2023-02-27T07:32:27.817Z,5.72
2023-02-27T07:37:25.908Z,4.38
2023-02-27T07:42:23.406Z,5.32
2023-02-27T07:47:19.892Z,4.97
2023-02-27T07:52:16.433Z,3.75
2023-02-27T07:57:13.096Z,4.18
2023-02-27T08:02:12.050Z,4.55
2023-02-27T08:07:08.573Z,4.40
2023-02-27T08:12:05.104Z,4.18
2023-02-27T08:17:01.632Z,4.57
2023-02-27T08:21:58.148Z,4.07
2023-02-27T08:26:54.666Z,4.38
2023-02-27T08:31:51.273Z,4.05
2023-02-27T08:36:48.090Z,4.28
2023-02-27T08:41:44.929Z,4.87
2023-02-27T08:46:41.622Z,3.90
2023-02-27T08:51:38.173Z,4.63
2023-02-27T08:56:34.807Z,2.88
2023-02-27T09:01:34.174Z,3.53
2023-02-27T09:06:31.468Z,2.80
2023-02-27T09:11:28.500Z,2.63
2023-02-27T09:21:23.568Z,2.10
2023-02-27T09:26:20.934Z,2.35
2023-02-27T09:31:18.264Z,2.15
2023-02-27T09:36:16.253Z,2.17
2023-02-27T09:41:35.399Z,2.03
2023-02-27T09:46:31.859Z,1.60
2023-02-27T09:51:29.070Z,2.15
2023-02-27T09:56:47.126Z,1.40
2023-02-27T10:02:13.728Z,1.33
2023-02-27T10:07:25.014Z,1.20
2023-02-27T10:12:31.137Z,1.15
2023-02-27T10:17:40.018Z,1.42
2023-02-27T10:22:42.018Z,1.20
2023-02-27T10:27:38.578Z,1.52
2023-02-27T10:32:35.604Z,1.30
2023-02-27T10:37:32.088Z,1.60
2023-02-27T10:42:32.633Z,1.50
2023-02-27T10:47:29.636Z,1.38
2023-02-27T10:57:37.828Z,1.55
2023-02-27T11:02:40.632Z,1.48
2023-02-27T11:07:38.573Z,1.90
2023-02-27T11:12:35.107Z,1.67
2023-02-27T11:17:36.766Z,2.05
2023-02-27T11:22:33.572Z,1.40
2023-02-27T11:27:30.704Z,1.83
2023-02-27T11:32:43.263Z,1.40
2023-02-27T11:37:41.218Z,1.30
2023-02-27T11:42:47.141Z,2.00
2023-02-27T11:47:48.691Z,1.63
2023-02-27T11:52:53.394Z,1.70
2023-02-27T11:57:54.643Z,1.60
2023-02-27T12:03:17.964Z,1.52
2023-02-27T12:08:18.630Z,1.88
2023-02-27T12:13:18.929Z,1.30
2023-02-27T12:18:19.696Z,1.90
2023-02-27T12:23:29.192Z,1.13
2023-02-27T12:28:58.034Z,1.23
2023-02-27T12:34:13.027Z,1.88
2023-02-27T12:39:18.488Z,1.60
2023-02-27T12:44:37.393Z,1.65
2023-02-27T12:49:39.485Z,1.58
2023-02-27T12:54:41.700Z,1.48
2023-02-27T12:59:48.199Z,1.73
2023-02-27T13:04:48.458Z,1.10
2023-02-27T13:09:54.771Z,1.05
2023-02-27T13:15:02.927Z,1.02
2023-02-27T13:20:20.804Z,1.00
2023-02-27T13:25:18.104Z,1.15
2023-02-27T13:30:33.387Z,1.08
2023-02-27T13:35:51.482Z,0.98
2023-02-27T13:40:47.977Z,1.50
2023-02-27T13:45:54.134Z,0.90
2023-02-27T13:50:51.925Z,1.25
2023-02-27T13:56:01.003Z,1.30
2023-02-27T14:00:59.842Z,0.98
2023-02-27T14:05:58.570Z,1.00
2023-02-27T14:11:09.803Z,1.10
2023-02-27T14:16:07.484Z,1.00
2023-02-27T14:21:04.818Z,0.88
2023-02-27T14:26:20.356Z,1.20
2023-02-27T14:31:30.224Z,1.25
2023-02-27T14:36:29.788Z,1.42
2023-02-27T14:41:49.563Z,1.10
2023-02-27T14:46:46.236Z,1.35
2023-02-27T14:51:46.037Z,0.70
2023-02-27T14:57:01.158Z,0.80
2023-02-27T15:02:05.939Z,0.82
2023-02-27T15:07:35.344Z,0.90
2023-02-27T15:12:45.486Z,1.23
2023-02-27T15:18:01.112Z,1.05
2023-02-27T15:23:43.664Z,1.08
2023-02-27T15:28:52.861Z,1.27
2023-02-27T15:34:27.771Z,1.25
2023-02-27T15:40:00.829Z,1.30
2023-02-27T15:45:24.240Z,1.45
2023-02-27T15:50:38.568Z,1.30
2023-02-27T15:55:52.285Z,1.55
2023-02-27T16:01:04.402Z,1.80
2023-02-27T16:12:52.546Z,1.70
2023-02-27T16:23:47.091Z,2.20
2023-02-27T16:29:04.838Z,2.33
2023-02-27T16:34:44.264Z,2.20
2023-02-27T16:39:41.510Z,2.40
2023-02-27T16:44:57.968Z,2.17
2023-02-27T16:49:56.556Z,1.90
2023-02-27T16:55:02.507Z,1.60
2023-02-27T17:00:34.129Z,1.80
2023-02-27T17:05:41.155Z,1.80
2023-02-27T17:10:54.194Z,1.77
2023-02-27T17:15:59.061Z,1.92
2023-02-27T17:21:01.555Z,2.05
2023-02-27T17:25:58.357Z,2.28
2023-02-27T17:31:02.933Z,1.85
2023-02-27T17:36:24.288Z,2.10
2023-02-27T17:41:39.321Z,2.40
2023-02-27T17:52:00.475Z,2.70
2023-02-27T17:57:14.884Z,2.97
2023-02-27T18:02:27.692Z,2.10
2023-02-27T18:07:26.387Z,1.80
2023-02-27T18:12:29.028Z,2.47
2023-02-27T18:17:45.720Z,3.40
2023-02-27T18:22:49.584Z,1.58
2023-02-27T18:27:52.396Z,1.80
2023-02-27T18:33:03.541Z,1.90
2023-02-27T18:38:07.972Z,2.00
2023-02-27T18:43:28.074Z,2.00
2023-02-27T18:48:27.434Z,2.13
2023-02-27T18:53:45.879Z,2.20
2023-02-27T18:58:52.432Z,2.42
2023-02-27T19:04:03.639Z,2.13
2023-02-27T19:09:12.991Z,2.00
2023-02-27T19:14:18.290Z,2.17
2023-02-27T19:19:28.576Z,2.40
2023-02-27T19:24:41.164Z,2.00
2023-02-27T19:29:37.953Z,2.22
2023-02-27T19:34:39.685Z,3.10
2023-02-27T19:39:39.696Z,2.70
2023-02-27T19:44:44.983Z,3.25
2023-02-27T19:49:46.252Z,2.90
2023-02-27T19:54:46.352Z,2.42
2023-02-27T19:59:45.287Z,2.13
2023-02-27T20:05:00.516Z,2.10
2023-02-27T20:10:02.180Z,2.05
2023-02-27T20:15:18.560Z,2.38
2023-02-27T20:20:23.543Z,1.85
2023-02-27T20:25:29.496Z,2.10
2023-02-27T20:30:46.550Z,2.55
2023-02-27T20:35:48.703Z,1.80
2023-02-27T20:41:04.109Z,2.08
2023-02-27T20:46:23.887Z,2.10
2023-02-27T20:52:04.487Z,2.72
2023-02-27T20:57:12.964Z,2.63
2023-02-27T21:02:13.155Z,3.03
2023-02-27T21:07:27.417Z,1.70
2023-02-27T21:13:00.569Z,2.95
2023-02-27T21:23:28.546Z,2.15
2023-02-27T21:28:47.708Z,1.67
2023-02-27T21:34:09.226Z,2.60
2023-02-27T21:39:23.287Z,2.00
2023-02-27T21:44:32.853Z,2.38
2023-02-27T21:49:34.549Z,2.58
2023-02-27T21:54:42.588Z,2.97
2023-02-27T21:59:45.790Z,3.05
2023-02-27T22:10:07.525Z,2.88
2023-02-27T22:15:14.358Z,2.53
2023-02-27T22:20:15.720Z,2.30
2023-02-27T22:25:21.018Z,2.08
2023-02-27T22:30:32.042Z,3.55
2023-02-27T22:35:39.753Z,2.28
2023-02-27T22:45:51.667Z,3.65
2023-02-27T22:50:57.316Z,2.50
2023-02-27T22:55:58.199Z,2.70
2023-02-27T23:01:03.497Z,2.10
2023-02-27T23:06:04.909Z,2.38
2023-02-27T23:16:19.796Z,2.00
2023-02-27T23:21:29.497Z,2.00
2023-02-27T23:26:42.325Z,2.22
2023-02-27T23:31:39.349Z,2.10
2023-02-27T23:42:04.660Z,2.10
2023-02-27T23:47:06.274Z,2.00
2023-02-27T23:52:06.726Z,1.80
2023-02-27T23:57:14.721Z,23.63
